createdAt,value
2017-12-12T00:00:41.958Z,0.70
2017-12-12T00:03:09.498Z,0.60
2017-12-12T00:05:37.045Z,0.47
2017-12-12T00:08:04.991Z,0.60
2017-12-12T00:10:32.527Z,0.50
2017-12-12T00:13:00.103Z,0.70
2017-12-12T00:15:27.774Z,0.53
2017-12-12T00:17:55.409Z,0.70
2017-12-12T00:20:22.922Z,0.90
2017-12-12T00:22:50.579Z,0.63
2017-12-12T00:25:18.300Z,0.80
2017-12-12T00:27:45.825Z,0.57
2017-12-12T00:30:13.706Z,0.57
2017-12-12T00:32:41.699Z,0.73
2017-12-12T00:35:09.316Z,0.67
2017-12-12T00:37:36.886Z,0.60
2017-12-12T00:40:04.333Z,0.60
2017-12-12T00:42:31.799Z,0.60
2017-12-12T00:44:59.359Z,0.50
2017-12-12T00:47:26.820Z,0.40
2017-12-12T00:49:54.299Z,0.47
2017-12-12T00:52:21.759Z,0.60
2017-12-12T00:54:50.714Z,0.57
2017-12-12T00:57:18.246Z,0.47
2017-12-12T00:59:46.331Z,0.50
2017-12-12T01:02:14.195Z,0.50
2017-12-12T01:04:41.666Z,0.63
2017-12-12T01:07:09.161Z,0.30
2017-12-12T01:09:36.611Z,0.50
2017-12-12T01:12:04.148Z,0.60
2017-12-12T01:14:31.779Z,0.60
2017-12-12T01:16:59.340Z,0.73
2017-12-12T01:19:26.846Z,0.60
2017-12-12T01:21:54.600Z,0.70
2017-12-12T01:24:22.179Z,0.77
2017-12-12T01:26:49.675Z,0.70
2017-12-12T01:29:17.272Z,0.57
2017-12-12T01:31:44.743Z,0.80
2017-12-12T01:34:12.753Z,1.10
2017-12-12T01:36:40.352Z,0.93
2017-12-12T01:39:07.946Z,0.93
2017-12-12T01:41:35.815Z,0.87
2017-12-12T01:44:03.251Z,1.07
2017-12-12T01:46:30.700Z,0.80
2017-12-12T01:48:58.132Z,1.00
2017-12-12T01:51:25.582Z,1.10
2017-12-12T01:53:53.111Z,1.33
2017-12-12T01:56:20.644Z,1.50
2017-12-12T01:58:48.106Z,1.50
2017-12-12T02:01:15.543Z,1.47
2017-12-12T02:03:43.163Z,1.50
2017-12-12T02:06:10.699Z,1.57
2017-12-12T02:08:38.143Z,1.83
2017-12-12T02:11:05.581Z,1.73
2017-12-12T02:13:33.392Z,2.13
2017-12-12T02:16:00.978Z,1.70
2017-12-12T02:18:28.501Z,1.70
2017-12-12T02:20:56.163Z,2.57
2017-12-12T02:23:23.803Z,2.27
2017-12-12T02:25:51.754Z,2.07
2017-12-12T02:28:19.248Z,2.43
2017-12-12T02:30:46.781Z,2.67
2017-12-12T02:33:14.681Z,2.53
2017-12-12T02:35:42.687Z,2.53
2017-12-12T02:38:10.163Z,2.97
2017-12-12T02:40:37.598Z,2.60
2017-12-12T02:43:05.049Z,2.83
2017-12-12T02:45:32.505Z,2.47
2017-12-12T02:47:59.967Z,2.40
2017-12-12T02:50:27.545Z,2.70
2017-12-12T02:52:55.004Z,2.97
2017-12-12T02:55:22.488Z,2.60
2017-12-12T02:57:49.972Z,2.47
2017-12-12T03:00:17.466Z,2.50
2017-12-12T03:02:45.354Z,2.37
2017-12-12T03:05:12.802Z,2.40
2017-12-12T03:07:40.317Z,2.30
2017-12-12T03:10:07.774Z,2.17
2017-12-12T03:12:35.267Z,2.90
2017-12-12T03:15:02.807Z,2.70
2017-12-12T03:17:30.279Z,2.80
2017-12-12T03:19:58.312Z,2.77
2017-12-12T03:22:25.808Z,2.40
2017-12-12T03:24:53.273Z,2.57
2017-12-12T03:27:21.172Z,2.10
2017-12-12T03:29:49.109Z,2.70
2017-12-12T03:32:17.052Z,2.80
2017-12-12T03:34:44.542Z,2.80
2017-12-12T03:37:12.281Z,2.37
2017-12-12T03:39:40.218Z,2.70
2017-12-12T03:42:08.119Z,2.80
2017-12-12T03:44:35.570Z,2.80
2017-12-12T03:47:03.064Z,2.87
2017-12-12T03:49:30.555Z,2.70
2017-12-12T03:51:59.484Z,2.80
2017-12-12T03:54:27.269Z,3.10
2017-12-12T03:56:54.836Z,3.27
2017-12-12T03:59:22.615Z,2.77
2017-12-12T04:01:50.129Z,3.27
2017-12-12T04:04:18.012Z,2.83
2017-12-12T04:06:45.914Z,3.10
2017-12-12T04:09:13.615Z,3.10
2017-12-12T04:11:41.375Z,2.90
2017-12-12T04:14:08.858Z,3.17
2017-12-12T04:16:36.384Z,3.00
2017-12-12T04:19:04.243Z,3.33
2017-12-12T04:21:31.791Z,2.80
2017-12-12T04:23:59.885Z,2.53
2017-12-12T04:26:27.569Z,2.83
2017-12-12T04:28:55.456Z,3.47
2017-12-12T04:31:22.918Z,2.80
2017-12-12T04:33:50.426Z,2.70
2017-12-12T04:36:18.304Z,3.27
2017-12-12T04:38:46.211Z,2.80
2017-12-12T04:41:13.668Z,2.67
2017-12-12T04:43:41.828Z,2.43
2017-12-12T04:46:09.383Z,3.00
2017-12-12T04:48:37.256Z,2.83
2017-12-12T04:51:04.762Z,3.30
2017-12-12T04:53:32.995Z,2.43
2017-12-12T04:56:00.981Z,2.80
2017-12-12T04:58:28.522Z,2.40
2017-12-12T05:00:56.532Z,2.40
2017-12-12T05:03:24.051Z,2.70
2017-12-12T05:05:51.947Z,2.50
2017-12-12T05:08:19.814Z,2.40
2017-12-12T05:10:47.666Z,2.63
2017-12-12T05:13:15.549Z,2.33
2017-12-12T05:15:43.724Z,2.87
2017-12-12T05:18:11.213Z,2.80
2017-12-12T05:20:38.664Z,2.53
2017-12-12T05:23:06.125Z,2.30
2017-12-12T05:25:33.596Z,2.43
2017-12-12T05:28:01.024Z,3.00
2017-12-12T05:30:28.933Z,2.70
2017-12-12T05:32:56.363Z,2.90
2017-12-12T05:35:23.806Z,3.13
2017-12-12T05:37:51.747Z,2.77
2017-12-12T05:40:19.725Z,2.80
2017-12-12T05:42:47.151Z,3.40
2017-12-12T05:45:14.567Z,2.97
2017-12-12T05:47:42.409Z,2.70
2017-12-12T05:50:09.834Z,3.63
2017-12-12T05:52:37.327Z,2.53
2017-12-12T05:55:04.802Z,3.13
2017-12-12T05:57:32.236Z,2.93
2017-12-12T05:59:59.712Z,3.47
2017-12-12T06:02:27.155Z,2.90
2017-12-12T06:04:54.564Z,2.90
2017-12-12T06:07:22.503Z,3.57
2017-12-12T06:09:49.942Z,3.43
2017-12-12T06:12:17.423Z,3.57
2017-12-12T06:14:44.948Z,3.67
2017-12-12T06:17:12.584Z,3.40
2017-12-12T06:19:40.060Z,3.60
2017-12-12T06:22:07.894Z,3.50
2017-12-12T06:24:35.696Z,2.93
2017-12-12T06:27:03.162Z,2.57
2017-12-12T06:29:30.920Z,3.40
2017-12-12T06:31:58.376Z,2.80
2017-12-12T06:34:25.822Z,3.10
2017-12-12T06:36:53.288Z,3.20
2017-12-12T06:39:20.732Z,3.00
2017-12-12T06:41:48.195Z,2.90
2017-12-12T06:44:15.652Z,3.03
2017-12-12T06:46:43.075Z,3.27
2017-12-12T06:49:10.558Z,2.80
2017-12-12T06:51:38.023Z,3.93
2017-12-12T06:54:05.465Z,3.20
2017-12-12T06:56:32.964Z,3.20
2017-12-12T06:59:00.415Z,2.93
2017-12-12T07:01:27.876Z,3.00
2017-12-12T07:03:55.322Z,3.07
2017-12-12T07:06:22.801Z,3.10
2017-12-12T07:08:50.270Z,3.60
2017-12-12T07:11:17.695Z,3.30
2017-12-12T07:13:45.129Z,3.07
2017-12-12T07:16:12.980Z,3.20
2017-12-12T07:18:40.441Z,3.97
2017-12-12T07:21:07.894Z,3.00
2017-12-12T07:23:35.361Z,4.50
2017-12-12T07:26:02.813Z,3.73
2017-12-12T07:28:30.275Z,3.70
2017-12-12T07:30:58.016Z,3.17
2017-12-12T07:33:25.905Z,3.03
2017-12-12T07:35:53.507Z,3.10
2017-12-12T07:38:22.965Z,3.03
2017-12-12T07:40:50.598Z,3.33
2017-12-12T07:43:18.551Z,4.30
2017-12-12T07:45:46.060Z,3.50
2017-12-12T07:48:13.483Z,2.87
2017-12-12T07:50:41.408Z,3.90
2017-12-12T07:53:08.924Z,3.70
2017-12-12T07:55:36.400Z,3.30
2017-12-12T07:58:04.522Z,3.20
2017-12-12T08:00:32.072Z,3.53
2017-12-12T08:02:59.728Z,3.00
2017-12-12T08:05:27.279Z,4.10
2017-12-12T08:07:54.792Z,3.87
2017-12-12T08:10:22.314Z,3.50
2017-12-12T08:12:49.857Z,3.07
2017-12-12T08:15:17.794Z,5.30
2017-12-12T08:17:45.529Z,3.57
2017-12-12T08:20:13.199Z,3.03
2017-12-12T08:22:40.670Z,3.30
2017-12-12T08:25:08.164Z,3.57
2017-12-12T08:27:35.702Z,4.00
2017-12-12T08:30:03.188Z,3.00
2017-12-12T08:32:30.663Z,3.10
2017-12-12T08:34:58.675Z,2.67
2017-12-12T08:37:26.234Z,3.33
2017-12-12T08:39:54.147Z,5.90
2017-12-12T08:42:21.741Z,2.80
2017-12-12T08:44:49.558Z,3.30
2017-12-12T08:47:17.214Z,2.73
2017-12-12T08:49:44.904Z,3.00
2017-12-12T08:52:13.733Z,3.43
2017-12-12T08:54:41.188Z,2.50
2017-12-12T08:57:08.712Z,3.30
2017-12-12T08:59:36.221Z,3.47
2017-12-12T09:02:04.060Z,2.70
2017-12-12T09:04:31.532Z,2.77
2017-12-12T09:06:58.988Z,2.97
2017-12-12T09:09:26.438Z,2.73
2017-12-12T09:11:53.882Z,2.93
2017-12-12T09:14:21.571Z,2.20
2017-12-12T09:16:49.024Z,2.80
2017-12-12T09:19:16.490Z,2.50
2017-12-12T09:21:44.062Z,2.70
2017-12-12T09:24:11.491Z,2.60
2017-12-12T09:26:38.963Z,2.50
2017-12-12T09:29:06.397Z,2.20
2017-12-12T09:31:33.822Z,2.60
2017-12-12T09:34:01.269Z,2.70
2017-12-12T09:36:28.708Z,2.17
2017-12-12T09:38:56.127Z,2.40
2017-12-12T09:41:23.955Z,2.57
2017-12-12T09:43:51.385Z,3.00
2017-12-12T09:46:18.860Z,2.40
2017-12-12T09:48:46.316Z,3.03
2017-12-12T09:51:13.802Z,2.23
2017-12-12T09:53:41.371Z,1.90
2017-12-12T09:56:08.938Z,2.63
2017-12-12T09:58:36.378Z,1.60
2017-12-12T10:01:03.836Z,1.87
2017-12-12T10:03:31.283Z,2.70
2017-12-12T10:05:58.906Z,1.90
2017-12-12T10:08:26.334Z,1.77
2017-12-12T10:10:53.775Z,1.90
2017-12-12T10:13:21.229Z,2.30
2017-12-12T10:15:48.659Z,1.90
2017-12-12T10:18:16.475Z,1.70
2017-12-12T10:20:43.923Z,1.90
2017-12-12T10:23:11.365Z,2.00
2017-12-12T10:25:39.206Z,2.10
2017-12-12T10:28:06.751Z,2.17
2017-12-12T10:30:34.166Z,2.47
2017-12-12T10:33:01.628Z,2.10
2017-12-12T10:35:29.115Z,1.73
2017-12-12T10:37:56.519Z,1.60
2017-12-12T10:40:23.968Z,2.63
2017-12-12T10:42:51.639Z,2.13
2017-12-12T10:45:19.142Z,1.80
2017-12-12T10:47:46.826Z,1.70
2017-12-12T10:50:14.316Z,2.33
2017-12-12T10:52:42.319Z,2.50
2017-12-12T10:55:10.443Z,1.70
2017-12-12T10:57:37.934Z,2.10
2017-12-12T11:00:05.523Z,1.87
2017-12-12T11:02:33.433Z,1.70
2017-12-12T11:05:01.094Z,2.40
2017-12-12T11:07:28.998Z,2.00
2017-12-12T11:09:56.442Z,3.37
2017-12-12T11:12:24.052Z,1.93
2017-12-12T11:14:51.718Z,2.13
2017-12-12T11:17:19.335Z,2.23
2017-12-12T11:19:46.799Z,1.90
2017-12-12T11:22:14.383Z,2.50
2017-12-12T11:24:41.843Z,2.40
2017-12-12T11:27:09.432Z,2.63
2017-12-12T11:29:37.020Z,1.83
2017-12-12T11:32:04.890Z,1.90
2017-12-12T11:34:32.873Z,2.27
2017-12-12T11:37:00.353Z,2.20
2017-12-12T11:39:27.815Z,2.27
2017-12-12T11:41:55.259Z,1.87
2017-12-12T11:44:22.799Z,2.40
2017-12-12T11:46:50.541Z,2.67
2017-12-12T11:49:18.060Z,2.43
2017-12-12T11:51:45.845Z,2.13
2017-12-12T11:54:13.582Z,2.03
2017-12-12T11:56:41.513Z,3.60
2017-12-12T11:59:09.062Z,2.30
2017-12-12T12:01:36.959Z,2.03
2017-12-12T12:04:04.553Z,1.90
2017-12-12T12:06:32.437Z,2.20
2017-12-12T12:09:00.846Z,2.50
2017-12-12T12:11:28.317Z,2.00
2017-12-12T12:13:55.786Z,2.20
2017-12-12T12:16:23.531Z,2.33
2017-12-12T12:18:51.017Z,2.20
2017-12-12T12:21:18.490Z,1.80
2017-12-12T12:23:45.948Z,2.03
2017-12-12T12:26:13.801Z,2.30
2017-12-12T12:28:41.659Z,1.90
2017-12-12T12:31:09.429Z,2.53
2017-12-12T12:33:37.100Z,1.87
2017-12-12T12:36:04.822Z,2.00
2017-12-12T12:38:33.306Z,2.60
2017-12-12T12:41:00.978Z,1.90
2017-12-12T12:43:30.191Z,2.50
2017-12-12T12:45:57.648Z,2.10
2017-12-12T12:48:25.544Z,1.70
2017-12-12T12:50:53.572Z,2.07
2017-12-12T12:53:21.317Z,2.40
2017-12-12T12:55:49.129Z,2.10
2017-12-12T12:58:16.841Z,2.10
2017-12-12T13:00:44.280Z,2.83
2017-12-12T13:03:11.924Z,2.80
2017-12-12T13:05:39.474Z,2.10
2017-12-12T13:08:06.991Z,2.20
2017-12-12T13:10:34.651Z,2.17
2017-12-12T13:13:02.431Z,2.50
2017-12-12T13:15:29.925Z,1.77
2017-12-12T13:17:57.648Z,2.03
2017-12-12T13:20:25.295Z,2.00
2017-12-12T13:22:53.789Z,2.27
2017-12-12T13:25:21.423Z,2.50
2017-12-12T13:27:48.935Z,2.80
2017-12-12T13:30:16.565Z,2.90
2017-12-12T13:32:44.527Z,2.60
2017-12-12T13:35:12.619Z,2.40
2017-12-12T13:37:40.722Z,2.13
2017-12-12T13:40:08.501Z,2.50
2017-12-12T13:42:36.261Z,2.37
2017-12-12T13:45:04.376Z,2.33
2017-12-12T13:47:31.922Z,2.33
2017-12-12T13:49:59.460Z,3.60
2017-12-12T13:52:26.942Z,2.23
2017-12-12T13:54:54.649Z,2.13
2017-12-12T13:57:22.556Z,2.07
2017-12-12T13:59:50.032Z,2.60
2017-12-12T14:02:17.830Z,2.07
2017-12-12T14:04:45.319Z,2.03
2017-12-12T14:07:12.787Z,2.30
2017-12-12T14:09:40.775Z,2.27
2017-12-12T14:12:08.410Z,1.77
2017-12-12T14:14:36.118Z,1.87
2017-12-12T14:17:03.609Z,2.70
2017-12-12T14:19:31.124Z,2.63
2017-12-12T14:21:59.233Z,1.90
2017-12-12T14:24:26.893Z,2.30
2017-12-12T14:26:54.468Z,2.53
2017-12-12T14:29:21.928Z,2.10
2017-12-12T14:31:49.633Z,1.90
2017-12-12T14:34:17.159Z,2.10
2017-12-12T14:36:44.719Z,2.00
2017-12-12T14:39:12.588Z,1.97
2017-12-12T14:41:40.057Z,1.97
2017-12-12T14:44:08.626Z,2.20
2017-12-12T14:46:36.758Z,2.60
2017-12-12T14:49:04.199Z,2.03
2017-12-12T14:51:31.776Z,3.10
2017-12-12T14:53:59.348Z,3.40
2017-12-12T14:56:27.651Z,3.30
2017-12-12T14:58:56.036Z,2.80
2017-12-12T15:01:23.547Z,3.33
2017-12-12T15:03:51.030Z,2.00
2017-12-12T15:06:18.533Z,2.97
2017-12-12T15:08:46.420Z,2.30
2017-12-12T15:11:13.923Z,2.47
2017-12-12T15:13:41.409Z,2.40
2017-12-12T15:16:09.337Z,2.30
2017-12-12T15:18:36.992Z,2.90
2017-12-12T15:21:05.079Z,2.80
2017-12-12T15:23:32.553Z,2.10
2017-12-12T15:26:00.181Z,3.00
2017-12-12T15:28:27.852Z,2.70
2017-12-12T15:30:55.311Z,3.30
2017-12-12T15:33:22.976Z,2.93
2017-12-12T15:35:50.568Z,3.33
2017-12-12T15:38:18.451Z,3.57
2017-12-12T15:40:45.911Z,3.73
2017-12-12T15:43:13.870Z,9.03
2017-12-12T15:45:41.799Z,4.43
2017-12-12T15:48:10.144Z,4.20
2017-12-12T15:50:37.617Z,5.03
2017-12-12T15:53:05.351Z,4.83
2017-12-12T15:55:32.822Z,4.93
2017-12-12T15:58:00.464Z,4.00
2017-12-12T16:00:28.240Z,4.07
2017-12-12T16:02:55.808Z,4.23
2017-12-12T16:05:23.880Z,4.40
2017-12-12T16:07:51.411Z,4.90
2017-12-12T16:10:19.455Z,6.23
2017-12-12T16:12:47.453Z,8.30
2017-12-12T16:15:15.425Z,9.77
2017-12-12T16:17:43.330Z,8.23
2017-12-12T16:20:11.258Z,7.40
2017-12-12T16:22:38.968Z,8.33
2017-12-12T16:25:06.422Z,7.90
2017-12-12T16:27:33.901Z,5.50
2017-12-12T16:30:01.421Z,5.40
2017-12-12T16:32:29.536Z,4.63
2017-12-12T16:34:56.964Z,4.60
2017-12-12T16:37:24.840Z,4.40
2017-12-12T16:39:52.774Z,3.70
2017-12-12T16:42:21.114Z,3.23
2017-12-12T16:44:48.798Z,6.10
2017-12-12T16:47:16.307Z,3.63
2017-12-12T16:49:43.778Z,2.90
2017-12-12T16:52:11.656Z,2.77
2017-12-12T16:54:39.641Z,2.70
2017-12-12T16:57:07.734Z,2.50
2017-12-12T16:59:35.232Z,2.60
2017-12-12T17:02:02.829Z,2.37
2017-12-12T17:04:30.377Z,3.10
2017-12-12T17:06:58.092Z,3.77
2017-12-12T17:09:25.764Z,3.83
2017-12-12T17:11:53.476Z,3.77
2017-12-12T17:14:20.991Z,4.30
2017-12-12T17:16:48.768Z,3.90
2017-12-12T17:19:17.296Z,5.07
2017-12-12T17:21:44.840Z,3.50
2017-12-12T17:24:12.262Z,3.20
2017-12-12T17:26:39.736Z,12.90
2017-12-12T17:29:07.164Z,3.53
2017-12-12T17:31:35.004Z,3.80
2017-12-12T17:34:02.460Z,4.10
2017-12-12T17:36:29.916Z,3.37
2017-12-12T17:38:57.495Z,3.30
2017-12-12T17:41:24.942Z,3.10
2017-12-12T17:43:52.381Z,3.00
2017-12-12T17:46:19.840Z,2.63
2017-12-12T17:48:47.328Z,2.53
2017-12-12T17:51:15.750Z,2.60
2017-12-12T17:53:43.593Z,3.10
2017-12-12T17:56:11.090Z,3.67
2017-12-12T17:58:38.928Z,2.80
2017-12-12T18:01:06.472Z,3.23
2017-12-12T18:03:33.927Z,3.40
2017-12-12T18:06:01.540Z,3.37
2017-12-12T18:08:29.075Z,4.00
2017-12-12T18:10:56.558Z,7.20
2017-12-12T18:13:24.470Z,2.70
2017-12-12T18:15:51.948Z,3.27
2017-12-12T18:18:19.435Z,2.77
2017-12-12T18:20:47.300Z,3.10
2017-12-12T18:23:15.270Z,2.80
2017-12-12T18:25:42.725Z,2.00
2017-12-12T18:28:10.260Z,2.30
2017-12-12T18:30:37.766Z,2.10
2017-12-12T18:33:05.248Z,1.93
2017-12-12T18:35:32.920Z,2.60
2017-12-12T18:38:00.782Z,2.50
2017-12-12T18:40:28.235Z,3.00
2017-12-12T18:42:55.684Z,2.30
2017-12-12T18:45:23.175Z,2.30
2017-12-12T18:47:51.055Z,2.40
2017-12-12T18:50:19.634Z,2.50
2017-12-12T18:52:47.136Z,3.10
2017-12-12T18:55:14.565Z,2.20
2017-12-12T18:57:42.491Z,2.80
2017-12-12T19:00:09.934Z,3.30
2017-12-12T19:02:37.432Z,2.57
2017-12-12T19:05:04.933Z,2.50
2017-12-12T19:07:32.833Z,2.97
2017-12-12T19:10:00.337Z,2.90
2017-12-12T19:12:27.843Z,2.37
2017-12-12T19:14:55.304Z,2.03
2017-12-12T19:17:22.721Z,2.80
2017-12-12T19:19:50.215Z,2.27
2017-12-12T19:22:18.044Z,2.17
2017-12-12T19:24:45.509Z,2.40
2017-12-12T19:27:12.998Z,2.20
2017-12-12T19:29:40.859Z,2.40
2017-12-12T19:32:08.700Z,2.73
2017-12-12T19:34:36.262Z,2.70
2017-12-12T19:37:03.811Z,2.67
2017-12-12T19:39:33.118Z,3.07
2017-12-12T19:42:00.575Z,2.07
2017-12-12T19:44:28.048Z,3.50
2017-12-12T19:46:55.470Z,2.67
2017-12-12T19:49:23.000Z,3.00
2017-12-12T19:51:50.468Z,2.93
2017-12-12T19:54:18.319Z,3.50
2017-12-12T19:56:45.816Z,4.10
2017-12-12T19:59:13.674Z,3.20
2017-12-12T20:01:41.123Z,2.63
2017-12-12T20:04:08.591Z,2.70
2017-12-12T20:06:36.026Z,3.07
2017-12-12T20:09:03.480Z,3.53
2017-12-12T20:11:30.945Z,3.10
2017-12-12T20:13:58.390Z,3.47
2017-12-12T20:16:26.407Z,3.77
2017-12-12T20:18:53.844Z,4.17
2017-12-12T20:21:21.276Z,3.87
2017-12-12T20:23:48.758Z,3.60
2017-12-12T20:26:16.196Z,4.30
2017-12-12T20:28:43.683Z,3.83
2017-12-12T20:31:11.132Z,3.67
2017-12-12T20:33:38.594Z,4.20
2017-12-12T20:36:06.054Z,3.40
2017-12-12T20:38:33.528Z,5.10
2017-12-12T20:41:00.987Z,4.83
2017-12-12T20:43:28.494Z,6.20
2017-12-12T20:45:55.944Z,5.27
2017-12-12T20:48:23.610Z,5.53
2017-12-12T20:50:51.063Z,5.23
2017-12-12T20:53:18.632Z,5.07
2017-12-12T20:55:46.075Z,4.00
2017-12-12T20:58:13.516Z,4.03
2017-12-12T21:00:41.640Z,3.73
2017-12-12T21:03:09.186Z,4.63
2017-12-12T21:05:36.626Z,4.00
2017-12-12T21:08:04.070Z,5.17
2017-12-12T21:10:31.577Z,4.23
2017-12-12T21:12:59.024Z,4.90
2017-12-12T21:15:26.505Z,5.77
2017-12-12T21:17:53.952Z,7.70
2017-12-12T21:20:21.386Z,5.90
2017-12-12T21:22:48.862Z,5.47
2017-12-12T21:25:17.132Z,5.53
2017-12-12T21:27:44.573Z,5.27
2017-12-12T21:30:12.004Z,6.17
2017-12-12T21:32:39.442Z,6.70
2017-12-12T21:35:06.887Z,6.03
2017-12-12T21:37:34.320Z,5.57
2017-12-12T21:40:01.771Z,6.57
2017-12-12T21:42:29.606Z,5.87
2017-12-12T21:44:57.138Z,7.00
2017-12-12T21:47:24.614Z,7.07
2017-12-12T21:49:52.069Z,8.07
2017-12-12T21:52:19.542Z,8.43
2017-12-12T21:54:47.056Z,9.10
2017-12-12T21:57:14.507Z,7.83
2017-12-12T21:59:42.358Z,9.13
2017-12-12T22:02:09.792Z,9.43
2017-12-12T22:04:37.259Z,8.07
2017-12-12T22:07:05.207Z,9.13
2017-12-12T22:09:32.649Z,8.70
2017-12-12T22:12:00.109Z,7.53
2017-12-12T22:14:27.599Z,9.00
2017-12-12T22:16:55.160Z,7.87
2017-12-12T22:19:22.608Z,8.40
2017-12-12T22:21:50.071Z,7.80
2017-12-12T22:24:17.491Z,7.40
2017-12-12T22:26:45.004Z,7.90
2017-12-12T22:29:12.480Z,8.87
2017-12-12T22:31:39.927Z,8.57
2017-12-12T22:34:07.417Z,7.27
2017-12-12T22:36:34.861Z,6.90
2017-12-12T22:39:02.328Z,7.43
2017-12-12T22:41:29.734Z,6.73
2017-12-12T22:43:57.583Z,8.13
2017-12-12T22:46:25.141Z,7.77
2017-12-12T22:48:52.692Z,7.77
2017-12-12T22:51:20.147Z,7.83
2017-12-12T22:53:47.687Z,6.90
2017-12-12T22:56:15.124Z,7.60
2017-12-12T22:58:43.070Z,6.77
2017-12-12T23:01:10.500Z,7.60
2017-12-12T23:03:38.068Z,14.37
2017-12-12T23:06:05.722Z,8.77
2017-12-12T23:08:33.143Z,8.43
2017-12-12T23:11:00.972Z,7.40
2017-12-12T23:13:28.433Z,8.73
2017-12-12T23:15:55.969Z,8.40
2017-12-12T23:18:23.391Z,7.80
2017-12-12T23:20:51.391Z,7.57
2017-12-12T23:23:18.819Z,7.87
2017-12-12T23:25:46.277Z,8.50
2017-12-12T23:28:13.822Z,8.23
2017-12-12T23:30:41.366Z,7.57
2017-12-12T23:33:08.791Z,8.37
2017-12-12T23:35:36.620Z,9.10
2017-12-12T23:38:04.068Z,6.50
2017-12-12T23:40:31.508Z,6.83
2017-12-12T23:42:58.967Z,9.07
2017-12-12T23:45:27.288Z,7.13
2017-12-12T23:47:54.717Z,7.03
2017-12-12T23:50:22.143Z,7.33
2017-12-12T23:52:49.992Z,7.37
2017-12-12T23:55:17.552Z,7.47
2017-12-12T23:57:45.039Z,7.10
